Time;durP1;ratioP1;P1;durP2;ratioP2;P2;SDS_P1;SDS_P2;PMS_P1;PMS_P2;Temp;Humidity;BMP_temperature;BMP_pressure;BME280_temperature;BME280_humidity;BME280_pressure;Samples;Min_cycle;Max_cycle;Signal;HPM_P1;HPM_P2
2023/10/21 00:01:05;;;;;;;0.30;0.30;;;;;;;11.60;92.07;95034.72;5087496;28;20054;-74
2023/10/21 00:03:33;;;;;;;0.35;0.35;;;;;;;11.56;92.30;95046.97;5087116;28;20055;-74
2023/10/21 00:06:01;;;;;;;0.30;0.30;;;;;;;11.55;92.39;95053.38;5087560;28;20097;-74
2023/10/21 00:08:29;;;;;;;0.30;0.30;;;;;;;11.59;92.48;95063.31;5090673;28;20036;-74
2023/10/21 00:11:05;;;;;;;0.25;0.25;;;;;;;11.64;92.27;95059.81;5086589;28;20105;-74
2023/10/21 00:13:33;;;;;;;0.73;0.73;;;;;;;11.71;92.20;95076.44;5084538;28;20411;-74
2023/10/21 00:16:02;;;;;;;0.30;0.30;;;;;;;11.73;91.92;95074.28;5090007;28;20048;-75
2023/10/21 00:18:30;;;;;;;0.43;0.43;;;;;;;11.74;91.79;95073.19;5091119;28;20459;-74
2023/10/21 00:20:57;;;;;;;0.32;0.32;;;;;;;11.77;91.30;95086.06;5086656;28;20052;-75
2023/10/21 00:23:25;;;;;;;0.30;0.30;;;;;;;11.77;91.68;95092.22;5082833;28;21742;-73
2023/10/21 00:25:53;;;;;;;0.38;0.38;;;;;;;11.79;91.23;95088.50;5084292;28;20478;-75
2023/10/21 00:28:20;;;;;;;0.38;0.38;;;;;;;11.75;91.22;95089.00;5058729;28;20048;-75
2023/10/21 00:30:49;;;;;;;0.70;0.70;;;;;;;11.73;91.08;95088.44;5069721;28;20738;-75
2023/10/21 00:33:18;;;;;;;0.30;0.30;;;;;;;11.67;91.21;95089.50;5089712;28;20073;-74
2023/10/21 00:35:46;;;;;;;0.38;0.38;;;;;;;11.64;91.51;95082.00;5072276;28;20131;-75
2023/10/21 00:38:14;;;;;;;0.40;0.40;;;;;;;11.63;91.52;95085.72;5072009;28;20043;-75
2023/10/21 00:40:50;;;;;;;0.28;0.28;;;;;;;11.59;91.25;95097.22;5069600;28;20135;-73
2023/10/21 00:43:38;;;;;;;0.82;0.82;;;;;;;11.56;91.76;95100.41;5091145;28;20630;-73
2023/10/21 00:46:07;;;;;;;0.30;0.30;;;;;;;11.51;91.36;95095.06;5071201;28;20135;-73
2023/10/21 00:48:37;;;;;;;0.32;0.32;;;;;;;11.49;91.77;95108.69;5089728;28;20035;-74
2023/10/21 00:51:05;;;;;;;0.30;0.30;;;;;;;11.48;92.10;95100.94;5088798;28;20047;-73
2023/10/21 00:53:34;;;;;;;0.60;0.60;;;;;;;11.49;91.83;95094.53;5072035;28;20434;-75
2023/10/21 00:56:02;;;;;;;0.40;0.40;;;;;;;11.49;92.07;95107.88;5089347;28;20036;-75
2023/10/21 00:58:31;;;;;;;0.30;0.30;;;;;;;11.48;92.25;95108.94;5074208;28;20121;-75
2023/10/21 01:01:01;;;;;;;0.50;0.50;;;;;;;11.44;92.51;95115.84;5068610;28;20055;-75
2023/10/21 01:03:30;;;;;;;0.45;0.45;;;;;;;11.46;92.42;95130.56;5075271;28;20127;-75
2023/10/21 01:06:00;;;;;;;0.40;0.40;;;;;;;11.43;92.40;95130.28;5081619;28;20059;-75
2023/10/21 01:08:28;;;;;;;0.57;0.57;;;;;;;11.39;92.40;95127.34;5092962;28;20439;-74
2023/10/21 01:10:56;;;;;;;0.40;0.40;;;;;;;11.39;92.52;95132.69;5089198;28;20055;-74
2023/10/21 01:13:24;;;;;;;0.32;0.32;;;;;;;11.43;92.84;95143.63;5070168;28;20036;-74
2023/10/21 01:15:51;;;;;;;0.40;0.40;;;;;;;11.42;92.53;95139.38;5089891;28;20068;-73
2023/10/21 01:18:19;;;;;;;0.30;0.30;;;;;;;11.43;92.48;95130.28;5072648;28;20044;-73
2023/10/21 01:20:52;;;;;;;0.40;0.40;;;;;;;11.43;92.24;95140.97;5085719;28;20036;-73
2023/10/21 01:23:22;;;;;;;0.30;0.30;;;;;;;11.44;92.20;95140.69;5080764;28;20043;-73
2023/10/21 01:25:49;;;;;;;0.30;0.30;;;;;;;11.40;92.43;95137.78;5082029;28;20079;-73
2023/10/21 01:28:17;;;;;;;0.35;0.35;;;;;;;11.44;92.38;95137.22;5070985;28;20113;-73
2023/10/21 01:30:46;;;;;;;0.30;0.30;;;;;;;11.43;92.22;95130.28;5069946;28;20048;-73
2023/10/21 01:33:14;;;;;;;0.30;0.30;;;;;;;11.40;92.12;95140.44;5087382;28;20043;-74
2023/10/21 01:35:43;;;;;;;0.38;0.38;;;;;;;11.43;91.82;95154.31;5089646;28;20527;-74
2023/10/21 01:38:11;;;;;;;0.38;0.38;;;;;;;11.37;92.05;95145.47;5088473;28;20042;-74
2023/10/21 01:40:41;;;;;;;0.30;0.30;;;;;;;11.33;91.79;95145.19;5075851;28;20048;-74
2023/10/21 01:43:08;;;;;;;0.30;0.30;;;;;;;11.35;91.67;95140.41;5070825;28;20123;-74
2023/10/21 01:45:36;;;;;;;0.40;0.40;;;;;;;11.35;91.84;95142.25;5088926;28;20058;-74
2023/10/21 01:48:05;;;;;;;0.32;0.32;;;;;;;11.32;91.88;95154.25;5071141;28;20113;-73
2023/10/21 01:50:33;;;;;;;0.25;0.25;;;;;;;11.30;92.11;95148.41;5070201;28;20051;-73
2023/10/21 01:53:01;;;;;;;0.30;0.30;;;;;;;11.32;92.27;95159.59;5087836;28;20044;-73
2023/10/21 01:55:29;;;;;;;0.30;0.30;;;;;;;11.32;92.25;95148.13;5069100;28;20097;-73
2023/10/21 01:57:58;;;;;;;0.30;0.30;;;;;;;11.32;92.28;95158.78;5092514;28;20131;-73
2023/10/21 02:00:25;;;;;;;0.30;0.30;;;;;;;11.36;92.37;95173.25;5071053;28;20072;-73
2023/10/21 02:02:54;;;;;;;0.30;0.30;;;;;;;11.39;92.48;95176.22;5072530;28;20055;-73
2023/10/21 02:05:23;;;;;;;0.28;0.28;;;;;;;11.38;92.33;95171.94;5072068;28;20048;-73
2023/10/21 02:07:52;;;;;;;0.30;0.30;;;;;;;11.42;92.24;95163.41;5085571;28;20613;-73
2023/10/21 02:10:19;;;;;;;0.40;0.40;;;;;;;11.43;92.10;95179.16;5094419;28;20048;-74
2023/10/21 02:12:47;;;;;;;0.20;0.20;;;;;;;11.43;92.13;95167.66;5071246;28;20056;-73
2023/10/21 02:15:17;;;;;;;0.38;0.30;;;;;;;11.47;91.81;95179.44;5088933;28;20445;-73
2023/10/21 02:17:45;;;;;;;0.20;0.20;;;;;;;11.44;92.05;95188.78;5086422;28;20406;-73
2023/10/21 02:20:14;;;;;;;0.30;0.30;;;;;;;11.44;91.85;95204.00;5069818;28;20028;-73
2023/10/21 02:22:43;;;;;;;0.22;0.22;;;;;;;11.39;92.00;95215.47;5071870;28;20036;-73
2023/10/21 02:25:13;;;;;;;0.30;0.30;;;;;;;11.35;92.25;95227.72;5088866;28;20073;-73
2023/10/21 02:27:42;;;;;;;0.40;0.40;;;;;;;11.34;92.22;95231.44;5083765;28;20032;-73
2023/10/21 02:30:12;;;;;;;0.32;0.32;;;;;;;11.30;92.09;95220.50;5072716;28;20044;-73
2023/10/21 02:32:44;;;;;;;0.30;0.30;;;;;;;11.29;92.25;95210.06;5088735;28;20061;-73
2023/10/21 02:35:12;;;;;;;0.20;0.20;;;;;;;11.29;92.28;95213.56;5087322;28;20039;-73
2023/10/21 02:37:40;;;;;;;0.30;0.30;;;;;;;11.30;92.14;95209.81;5084483;28;20043;-73
2023/10/21 02:40:09;;;;;;;0.32;0.32;;;;;;;11.28;92.20;95211.94;5045398;23;20453;-73
2023/10/21 02:42:37;;;;;;;0.30;0.30;;;;;;;11.25;92.20;95219.66;5039391;28;20036;-73
2023/10/21 02:45:06;;;;;;;0.30;0.30;;;;;;;11.24;92.28;95218.84;5026145;28;20060;-73
2023/10/21 02:47:35;;;;;;;0.43;0.43;;;;;;;11.26;92.11;95227.41;5035929;28;20411;-72
2023/10/21 02:50:04;;;;;;;0.40;0.40;;;;;;;11.25;92.13;95223.13;5021541;28;20049;-73
2023/10/21 02:52:32;;;;;;;0.30;0.30;;;;;;;11.23;91.90;95224.44;5039530;28;20052;-72
2023/10/21 02:55:00;;;;;;;0.20;0.20;;;;;;;11.22;91.96;95233.50;5038393;28;20153;-72
2023/10/21 02:57:29;;;;;;;0.20;0.20;;;;;;;11.23;91.82;95227.91;5020572;28;20512;-72
2023/10/21 02:59:56;;;;;;;0.30;0.30;;;;;;;11.25;91.75;95228.47;5020357;28;20033;-72
2023/10/21 03:02:24;;;;;;;0.20;0.20;;;;;;;11.23;91.64;95227.09;5037580;28;20048;-74
2023/10/21 03:04:52;;;;;;;0.30;0.30;;;;;;;11.25;91.52;95230.31;5020696;28;20148;-73
2023/10/21 03:07:21;;;;;;;0.28;0.28;;;;;;;11.27;91.29;95231.69;5041299;28;20558;-74
2023/10/21 03:09:49;;;;;;;0.30;0.30;;;;;;;11.29;90.72;95236.78;5024922;28;20053;-73
2023/10/21 03:12:16;;;;;;;0.20;0.20;;;;;;;11.33;90.27;95224.50;5042709;28;20037;-73
2023/10/21 03:14:44;;;;;;;0.28;0.28;;;;;;;11.44;89.35;95233.38;5042360;28;20037;-72
2023/10/21 03:17:14;;;;;;;0.38;0.38;;;;;;;11.57;88.33;95235.59;5041261;28;20037;-74
2023/10/21 03:19:42;;;;;;;0.30;0.30;;;;;;;11.64;87.73;95222.81;5043372;28;20120;-74
2023/10/21 03:22:10;;;;;;;0.30;0.30;;;;;;;11.69;87.09;95234.34;5037670;28;20052;-74
2023/10/21 03:24:39;;;;;;;0.20;0.20;;;;;;;11.70;86.97;95240.50;5022728;28;20039;-73
2023/10/21 03:27:07;;;;;;;0.22;0.22;;;;;;;11.74;86.69;95238.88;5025319;28;20056;-74
2023/10/21 03:29:35;;;;;;;0.20;0.20;;;;;;;11.79;86.18;95238.97;5041547;28;20111;-75
2023/10/21 03:32:03;;;;;;;0.22;0.22;;;;;;;11.88;85.34;95245.41;5041834;28;20041;-73
2023/10/21 03:34:32;;;;;;;0.20;0.20;;;;;;;11.90;85.20;95251.31;5041516;28;20040;-73
2023/10/21 03:37:00;;;;;;;0.20;0.20;;;;;;;11.90;85.00;95253.16;5041829;28;20076;-72
2023/10/21 03:39:28;;;;;;;0.30;0.30;;;;;;;11.94;84.94;95251.59;5040960;28;20048;-72
2023/10/21 03:41:57;;;;;;;0.20;0.20;;;;;;;11.91;85.01;95249.44;5024420;28;20076;-73
2023/10/21 03:44:25;;;;;;;0.20;0.20;;;;;;;11.91;84.65;95247.56;5038926;28;20041;-74
2023/10/21 03:46:52;;;;;;;0.20;0.20;;;;;;;11.92;84.74;95265.22;5022386;28;20057;-73
2023/10/21 03:49:22;;;;;;;0.10;0.10;;;;;;;11.93;84.82;95253.47;5023003;28;20514;-73
2023/10/21 03:51:50;;;;;;;0.20;0.20;;;;;;;11.94;84.82;95273.75;5040688;28;20084;-73
2023/10/21 03:54:18;;;;;;;0.22;0.22;;;;;;;11.97;84.70;95265.22;5042141;28;21636;-73
2023/10/21 03:56:45;;;;;;;0.20;0.20;;;;;;;11.96;84.65;95268.97;5039520;28;20590;-74
2023/10/21 03:59:14;;;;;;;0.20;0.20;;;;;;;11.94;84.66;95267.63;5041512;28;20069;-74
2023/10/21 04:01:42;;;;;;;0.20;0.20;;;;;;;11.95;84.27;95271.88;5040741;28;20127;-74
2023/10/21 04:04:10;;;;;;;0.10;0.10;;;;;;;11.97;84.30;95281.25;5043727;28;20445;-73
2023/10/21 04:06:38;;;;;;;0.20;0.20;;;;;;;11.96;83.92;95282.31;5047527;28;20108;-71
2023/10/21 04:09:07;;;;;;;0.20;0.20;;;;;;;11.97;84.07;95294.63;5044961;28;20049;-72
2023/10/21 04:11:35;;;;;;;0.20;0.20;;;;;;;11.97;83.98;95278.59;5043043;28;20041;-73
2023/10/21 04:14:05;;;;;;;0.20;0.20;;;;;;;11.96;83.83;95293.03;5042438;28;20072;-72
2023/10/21 04:16:34;;;;;;;0.30;0.30;;;;;;;11.98;83.69;95290.91;5042066;28;20072;-73
2023/10/21 04:19:01;;;;;;;0.20;0.20;;;;;;;11.98;83.79;95306.13;5041031;28;20053;-72
2023/10/21 04:21:29;;;;;;;0.20;0.20;;;;;;;11.99;83.78;95315.75;5043122;28;20108;-72
2023/10/21 04:23:58;;;;;;;0.28;0.28;;;;;;;12.04;83.67;95311.22;5039662;28;20148;-73
2023/10/21 04:26:25;;;;;;;0.32;0.32;;;;;;;12.04;83.53;95315.81;5041271;28;20491;-73
2023/10/21 04:28:53;;;;;;;0.20;0.20;;;;;;;12.04;83.59;95321.94;5040093;28;20051;-74
2023/10/21 04:31:21;;;;;;;0.28;0.28;;;;;;;12.08;83.43;95331.06;5039667;28;20080;-72
2023/10/21 04:33:50;;;;;;;0.20;0.20;;;;;;;12.11;83.70;95337.75;5041573;28;20052;-72
2023/10/21 04:36:18;;;;;;;0.30;0.30;;;;;;;12.15;83.55;95330.81;5041461;28;20504;-72
2023/10/21 04:38:46;;;;;;;0.20;0.20;;;;;;;12.23;82.82;95326.84;5041728;28;20052;-73
2023/10/21 04:41:14;;;;;;;0.22;0.22;;;;;;;12.29;82.26;95312.41;5024511;28;20152;-75
2023/10/21 04:43:42;;;;;;;0.30;0.30;;;;;;;12.35;82.32;95330.13;5041636;28;20128;-73
2023/10/21 04:46:09;;;;;;;0.17;0.17;;;;;;;12.36;82.18;95321.81;5040223;28;20128;-75
2023/10/21 04:48:37;;;;;;;0.20;0.20;;;;;;;12.36;82.23;95329.03;5040296;28;20059;-73
2023/10/21 04:51:06;;;;;;;0.30;0.30;;;;;;;12.42;81.68;95330.66;5039782;28;20083;-73
2023/10/21 04:53:34;;;;;;;0.15;0.15;;;;;;;12.42;81.67;95339.50;5041130;28;20060;-73
2023/10/21 04:56:03;;;;;;;0.15;0.15;;;;;;;12.42;81.80;95349.41;5040503;28;20128;-74
2023/10/21 04:58:30;;;;;;;0.25;0.25;;;;;;;12.43;81.76;95348.34;5040770;28;20047;-74
2023/10/21 05:00:58;;;;;;;0.20;0.20;;;;;;;12.42;81.98;95354.75;5037008;28;20041;-73
2023/10/21 05:03:26;;;;;;;0.25;0.25;;;;;;;12.47;81.29;95368.13;5039552;28;20095;-73
2023/10/21 05:05:54;;;;;;;0.20;0.20;;;;;;;12.52;80.90;95357.47;5044774;28;20403;-73
2023/10/21 05:08:23;;;;;;;0.20;0.20;;;;;;;12.53;80.74;95363.63;5047528;28;20523;-72
2023/10/21 05:10:50;;;;;;;0.10;0.10;;;;;;;12.55;80.75;95364.97;5044729;28;20132;-72
2023/10/21 05:13:18;;;;;;;0.20;0.20;;;;;;;12.58;80.56;95380.50;5045327;28;20041;-71
2023/10/21 05:15:46;;;;;;;0.20;0.20;;;;;;;12.56;80.76;95369.25;5041538;28;20049;-72
2023/10/21 05:18:14;;;;;;;0.30;0.30;;;;;;;12.60;80.63;95383.72;5039552;28;20132;-72
2023/10/21 05:20:42;;;;;;;0.25;0.25;;;;;;;12.58;80.77;95383.16;5040878;28;20053;-72
2023/10/21 05:23:09;;;;;;;0.22;0.22;;;;;;;12.56;81.00;95398.69;5038747;28;20049;-75
2023/10/21 05:25:39;;;;;;;0.30;0.30;;;;;;;12.54;80.95;95398.16;5020421;28;20037;-76
2023/10/21 05:28:06;;;;;;;0.13;0.13;;;;;;;12.58;80.60;95401.91;5036690;28;20124;-73
2023/10/21 05:30:34;;;;;;;0.35;0.35;;;;;;;12.60;80.51;95405.13;5038104;28;20037;-73
2023/10/21 05:33:02;;;;;;;0.28;0.28;;;;;;;12.61;80.46;95405.94;5039655;28;20716;-72
2023/10/21 05:35:30;;;;;;;0.20;0.20;;;;;;;12.64;79.95;95414.25;5037664;28;20037;-72
2023/10/21 05:37:57;;;;;;;0.20;0.20;;;;;;;12.71;79.53;95430.88;5022393;28;20052;-74
2023/10/21 05:40:25;;;;;;;0.20;0.20;;;;;;;12.78;79.53;95427.94;5039796;28;20052;-74
2023/10/21 05:42:54;;;;;;;0.13;0.13;;;;;;;12.78;79.75;95444.81;5044496;28;20046;-72
2023/10/21 05:45:23;;;;;;;0.10;0.10;;;;;;;12.78;79.30;95438.66;5026905;28;20048;-72
2023/10/21 05:47:51;;;;;;;0.20;0.20;;;;;;;12.80;79.47;95452.59;5040742;28;20075;-73
2023/10/21 05:50:20;;;;;;;0.57;0.30;;;;;;;12.80;79.09;95444.56;5040575;28;20049;-73
2023/10/21 05:52:49;;;;;;;0.22;0.22;;;;;;;12.79;79.24;95450.97;5043389;28;20470;-73
2023/10/21 05:55:17;;;;;;;0.20;0.20;;;;;;;12.78;79.27;95460.06;5043372;28;20056;-72
2023/10/21 05:57:44;;;;;;;0.20;0.20;;;;;;;12.80;79.13;95471.31;5020818;28;20556;-73
2023/10/21 06:00:15;;;;;;;0.17;0.17;;;;;;;12.77;79.27;95480.66;5039164;28;20372;-73
2023/10/21 06:02:43;;;;;;;0.20;0.20;;;;;;;12.76;79.14;95468.38;5039060;28;20041;-73
2023/10/21 06:05:12;;;;;;;0.17;0.17;;;;;;;12.78;79.01;95484.97;5039738;28;20091;-73
2023/10/21 06:07:40;;;;;;;0.20;0.20;;;;;;;12.82;79.15;95495.97;5035616;28;20049;-73
2023/10/21 06:10:09;;;;;;;0.20;0.20;;;;;;;12.82;78.90;95504.81;5037872;28;20129;-73
2023/10/21 06:12:37;;;;;;;0.20;0.20;;;;;;;12.84;78.81;95509.91;5038029;28;20484;-73
2023/10/21 06:15:06;;;;;;;0.30;0.30;;;;;;;12.88;78.56;95513.66;5037054;28;20525;-74
2023/10/21 06:17:35;;;;;;;0.30;0.30;;;;;;;12.88;78.54;95502.94;5039671;28;20041;-73
2023/10/21 06:20:03;;;;;;;0.17;0.17;;;;;;;12.92;78.34;95519.31;5039492;28;20614;-73
2023/10/21 06:22:31;;;;;;;0.13;0.13;;;;;;;12.94;78.22;95520.66;5039309;28;20036;-73
2023/10/21 06:24:59;;;;;;;0.10;0.10;;;;;;;12.97;77.88;95530.06;5040236;28;20060;-73
2023/10/21 06:27:26;;;;;;;0.30;0.30;;;;;;;13.06;77.42;95548.03;5037165;28;20124;-73
2023/10/21 06:29:54;;;;;;;0.20;0.20;;;;;;;13.16;76.61;95540.09;5021710;28;20480;-73
2023/10/21 06:32:22;;;;;;;0.13;0.13;;;;;;;13.19;76.54;95534.19;5039109;28;20094;-73
2023/10/21 06:34:51;;;;;;;0.25;0.25;;;;;;;13.19;76.69;95533.38;5040144;28;20140;-73
2023/10/21 06:37:19;;;;;;;0.20;0.20;;;;;;;13.17;76.87;95548.94;5038958;28;20045;-73
2023/10/21 06:39:47;;;;;;;0.20;0.20;;;;;;;13.18;76.75;95566.63;5039654;28;20048;-72
2023/10/21 06:42:16;;;;;;;0.20;0.20;;;;;;;13.18;77.07;95566.63;5024229;28;20041;-72
2023/10/21 06:44:44;;;;;;;0.13;0.13;;;;;;;13.18;76.92;95571.97;5044075;28;20503;-72
2023/10/21 06:47:12;;;;;;;0.30;0.30;;;;;;;13.21;76.76;95579.47;5039540;28;20076;-73
2023/10/21 06:49:39;;;;;;;0.10;0.10;;;;;;;13.25;76.58;95583.25;5044919;28;20053;-75
2023/10/21 06:52:08;;;;;;;0.20;0.20;;;;;;;13.22;76.90;95589.94;5045436;28;20043;-72
2023/10/21 06:54:36;;;;;;;0.20;0.20;;;;;;;13.27;76.45;95599.88;5044220;28;20041;-72
2023/10/21 06:57:04;;;;;;;0.20;0.20;;;;;;;13.31;76.21;95592.91;5050892;28;20127;-73
2023/10/21 06:59:33;;;;;;;0.20;0.20;;;;;;;13.37;75.88;95594.56;5050062;28;20048;-71
2023/10/21 07:02:00;;;;;;;0.20;0.20;;;;;;;13.42;75.71;95599.94;5048596;28;20644;-72
2023/10/21 07:04:28;;;;;;;0.15;0.15;;;;;;;13.45;75.75;95601.28;5045119;28;20041;-72
2023/10/21 07:06:56;;;;;;;0.20;0.20;;;;;;;13.47;75.38;95602.66;5031796;28;20095;-72
2023/10/21 07:09:25;;;;;;;0.10;0.10;;;;;;;13.50;75.35;95617.38;5042514;28;20047;-72
2023/10/21 07:11:52;;;;;;;0.25;0.25;;;;;;;13.51;75.30;95619.78;5037074;28;20579;-72
2023/10/21 07:14:20;;;;;;;0.20;0.20;;;;;;;13.56;74.90;95635.91;5042215;28;20049;-72
2023/10/21 07:16:48;;;;;;;0.28;0.28;;;;;;;13.56;75.01;95633.22;5042095;28;20079;-71
2023/10/21 07:19:16;;;;;;;0.40;0.20;;;;;;;13.56;75.05;95640.47;5037014;28;20044;-71
2023/10/21 07:21:43;;;;;;;0.25;0.25;;;;;;;13.57;74.89;95656.28;5033846;28;20044;-72
2023/10/21 07:24:12;;;;;;;0.20;0.20;;;;;;;13.60;74.82;95662.97;5041684;28;20051;-72
2023/10/21 07:26:41;;;;;;;0.10;0.10;;;;;;;13.59;74.81;95656.84;5041915;28;20481;-72
2023/10/21 07:29:09;;;;;;;0.20;0.20;;;;;;;13.64;74.38;95668.63;5041790;28;20048;-72
2023/10/21 07:31:38;;;;;;;0.20;0.20;;;;;;;13.64;74.79;95684.72;5040661;28;20046;-74
2023/10/21 07:34:05;;;;;;;0.43;0.20;;;;;;;13.60;75.03;95692.47;5041445;28;20041;-72
2023/10/21 07:36:34;;;;;;;0.20;0.20;;;;;;;13.60;75.33;95697.84;5040253;28;20496;-73
2023/10/21 07:39:04;;;;;;;0.45;0.45;;;;;;;13.62;74.65;95698.38;5033790;28;20254;-71
2023/10/21 07:41:33;;;;;;;0.10;0.10;;;;;;;13.69;74.39;95701.66;5040243;28;20053;-72
2023/10/21 07:44:02;;;;;;;0.10;0.10;;;;;;;13.70;74.36;95711.31;5040325;28;20132;-73
2023/10/21 07:46:30;;;;;;;0.20;0.20;;;;;;;13.73;74.00;95715.31;5040194;28;20493;-72
2023/10/21 07:48:57;;;;;;;0.20;0.20;;;;;;;13.72;74.12;95717.19;5040463;28;20046;-73
2023/10/21 07:51:25;;;;;;;0.25;0.25;;;;;;;13.72;74.01;95706.47;5038476;28;20045;-72
2023/10/21 07:53:53;;;;;;;0.10;0.10;;;;;;;13.73;74.21;95734.09;5042483;28;20033;-73
2023/10/21 07:56:21;;;;;;;0.17;0.17;;;;;;;13.72;73.23;95727.94;5042562;28;20038;-72
2023/10/21 07:58:49;;;;;;;0.15;0.15;;;;;;;13.80;72.80;95730.13;5041009;28;20582;-73
2023/10/21 08:01:19;;;;;;;0.10;0.10;;;;;;;13.80;73.11;95734.69;5040717;28;20089;-72
2023/10/21 08:03:46;;;;;;;0.20;0.20;;;;;;;13.81;73.27;95749.69;5041572;28;20041;-73
2023/10/21 08:06:15;;;;;;;0.10;0.10;;;;;;;13.82;73.15;95745.94;5042364;28;20099;-72
2023/10/21 08:08:43;;;;;;;0.32;0.25;;;;;;;13.85;72.67;95750.78;5040936;28;20049;-72
2023/10/21 08:11:11;;;;;;;0.50;0.50;;;;;;;13.86;72.79;95755.09;5038816;28;20435;-72
2023/10/21 08:13:38;;;;;;;0.20;0.20;;;;;;;13.87;72.30;95754.03;5023070;28;20055;-72
2023/10/21 08:16:06;;;;;;;0.20;0.20;;;;;;;13.92;71.73;95757.53;5040112;28;20049;-72
2023/10/21 08:18:35;;;;;;;0.28;0.28;;;;;;;13.98;71.49;95752.19;5040705;28;20044;-73
2023/10/21 08:21:04;;;;;;;0.15;0.15;;;;;;;14.00;70.90;95763.47;5041878;28;20778;-72
2023/10/21 08:23:33;;;;;;;0.10;0.10;;;;;;;14.04;70.90;95762.69;5024947;28;20045;-72
2023/10/21 08:26:01;;;;;;;0.20;0.20;;;;;;;14.06;70.83;95768.59;5045447;28;20064;-74
2023/10/21 08:28:28;;;;;;;0.10;0.10;;;;;;;14.10;70.56;95761.66;5042629;28;20037;-72
2023/10/21 08:30:56;;;;;;;0.20;0.20;;;;;;;14.11;70.58;95759.78;5019256;28;20496;-72
2023/10/21 08:33:24;;;;;;;0.10;0.10;;;;;;;14.16;70.65;95771.31;5039973;28;20045;-74
2023/10/21 08:35:54;;;;;;;0.32;0.32;;;;;;;14.19;70.48;95775.38;5041610;28;20444;-73
2023/10/21 08:38:22;;;;;;;0.10;0.10;;;;;;;14.18;70.77;95773.75;5044856;28;20052;-72
2023/10/21 08:40:49;;;;;;;0.10;0.10;;;;;;;14.19;70.97;95786.91;5057638;23;20053;-73
2023/10/21 08:43:19;;;;;;;0.25;0.25;;;;;;;14.21;71.26;95784.78;5042699;28;20911;-73
2023/10/21 08:45:47;;;;;;;0.22;0.22;;;;;;;14.22;71.31;95797.09;5040612;28;20518;-73
2023/10/21 08:48:17;;;;;;;0.20;0.20;;;;;;;14.29;71.66;95796.88;5043128;28;20132;-74
2023/10/21 08:50:49;;;;;;;0.52;0.52;;;;;;;14.29;71.17;95810.31;5042034;28;20443;-73
2023/10/21 08:53:18;;;;;;;0.20;0.20;;;;;;;14.32;71.09;95809.78;5044755;28;20042;-74
2023/10/21 08:55:47;;;;;;;0.20;0.20;;;;;;;14.32;71.49;95815.97;5045519;28;20484;-74
2023/10/21 08:58:16;;;;;;;0.15;0.15;;;;;;;14.36;71.53;95816.22;5046874;28;20053;-74
2023/10/21 09:00:44;;;;;;;0.52;0.52;;;;;;;14.38;71.71;95824.81;5049179;28;21223;-73
2023/10/21 09:03:14;;;;;;;0.20;0.20;;;;;;;14.40;71.68;95830.78;5042966;28;20072;-74
2023/10/21 09:06:10;;;;;;;0.20;0.20;;;;;;;14.39;71.73;95833.69;5042372;28;20044;-75
2023/10/21 09:08:41;;;;;;;0.20;0.20;;;;;;;14.36;71.80;95829.66;5042058;28;20451;-75
2023/10/21 09:11:10;;;;;;;0.10;0.10;;;;;;;14.38;71.94;95848.97;5040592;28;20120;-75
2023/10/21 09:13:40;;;;;;;0.35;0.35;;;;;;;14.38;71.50;95848.97;5042051;28;20388;-73
2023/10/21 09:16:19;;;;;;;0.10;0.10;;;;;;;14.39;72.34;95858.69;5042968;28;20049;-74
2023/10/21 09:18:56;;;;;;;0.15;0.15;;;;;;;14.41;72.00;95858.44;5039336;28;20514;-74
2023/10/21 09:21:33;;;;;;;0.10;0.10;;;;;;;14.40;71.38;95851.44;5045953;28;20492;-74
2023/10/21 09:24:02;;;;;;;0.20;0.20;;;;;;;14.40;71.81;95860.31;5046117;28;20064;-75
2023/10/21 09:26:34;;;;;;;0.15;0.15;;;;;;;14.44;71.65;95871.31;5045248;28;20457;-75
2023/10/21 09:29:07;;;;;;;0.20;0.20;;;;;;;14.45;71.71;95876.41;5040508;28;20116;-74
2023/10/21 09:31:48;;;;;;;0.13;0.13;;;;;;;14.46;71.59;95871.84;5043480;28;20056;-74
2023/10/21 09:34:25;;;;;;;0.20;0.20;;;;;;;14.49;71.05;95872.16;5039768;28;20512;-74
2023/10/21 09:36:54;;;;;;;0.20;0.20;;;;;;;14.54;71.19;95872.16;5039608;28;20489;-73
2023/10/21 09:39:24;;;;;;;0.20;0.20;;;;;;;14.57;71.23;95873.53;5041608;28;20144;-74
2023/10/21 09:41:52;;;;;;;0.20;0.20;;;;;;;14.62;71.16;95870.88;5041086;28;20443;-73
2023/10/21 09:44:20;;;;;;;0.20;0.20;;;;;;;14.63;71.15;95888.59;5039904;28;20041;-73
2023/10/21 09:46:49;;;;;;;0.20;0.20;;;;;;;14.67;71.18;95874.38;5042549;28;20048;-75
2023/10/21 09:49:17;;;;;;;0.10;0.10;;;;;;;14.71;71.25;95885.41;5041093;28;20511;-74
2023/10/21 09:51:47;;;;;;;0.20;0.20;;;;;;;14.75;71.50;95891.03;5041624;28;20051;-74
2023/10/21 09:54:23;;;;;;;0.10;0.10;;;;;;;14.78;71.09;95896.72;5042652;28;20041;-74
2023/10/21 09:56:54;;;;;;;0.20;0.20;;;;;;;14.79;70.94;95892.94;5055756;28;20055;-73
2023/10/21 09:59:23;;;;;;;0.20;0.20;;;;;;;14.82;70.53;95897.00;5049437;28;20073;-73
2023/10/21 10:01:52;;;;;;;0.15;0.15;;;;;;;14.81;70.57;95892.69;5033048;28;20068;-73
2023/10/21 10:04:21;;;;;;;0.20;0.20;;;;;;;14.85;69.84;95901.81;5041098;28;20388;-74
2023/10/21 10:06:56;;;;;;;0.10;0.10;;;;;;;14.89;70.37;95905.59;5041949;28;20045;-74
2023/10/21 10:09:33;;;;;;;0.20;0.20;;;;;;;14.93;70.12;95902.16;5038650;28;20107;-74
2023/10/21 10:12:07;;;;;;;0.10;0.10;;;;;;;14.97;70.39;95915.84;5040706;28;20048;-75
2023/10/21 10:14:36;;;;;;;0.20;0.20;;;;;;;14.93;70.46;95909.41;5040863;28;20117;-74
2023/10/21 10:17:05;;;;;;;0.10;0.10;;;;;;;14.89;70.80;95893.00;5035499;28;20046;-74
2023/10/21 10:19:38;;;;;;;0.20;0.20;;;;;;;14.84;70.70;95892.97;5038934;28;20060;-74
2023/10/21 10:22:19;;;;;;;0.25;0.25;;;;;;;14.89;70.93;95917.16;5040050;28;20045;-74
2023/10/21 10:24:56;;;;;;;0.25;0.25;;;;;;;14.89;70.70;95917.16;5040858;28;20591;-74
2023/10/21 10:27:36;;;;;;;0.10;0.10;;;;;;;14.94;70.06;95927.94;5042298;28;20049;-74
2023/10/21 10:30:09;;;;;;;0.15;0.15;;;;;;;15.01;69.92;95925.00;5039860;28;20052;-74
2023/10/21 10:32:43;;;;;;;0.20;0.20;;;;;;;15.18;69.14;95919.41;5034191;28;20046;-74
2023/10/21 10:35:28;;;;;;;0.20;0.20;;;;;;;15.34;69.00;95929.94;5039013;28;20045;-74
2023/10/21 10:37:56;;;;;;;0.20;0.20;;;;;;;15.44;67.95;95931.84;5039982;28;20540;-74
2023/10/21 10:40:34;;;;;;;0.10;0.10;;;;;;;15.51;68.09;95937.75;5047261;28;20041;-74
2023/10/21 10:43:04;;;;;;;0.10;0.10;;;;;;;15.53;67.85;95935.63;5058265;28;20496;-74
2023/10/21 10:45:33;;;;;;;0.30;0.30;;;;;;;15.49;68.00;95931.84;5043585;28;20124;-74
2023/10/21 10:48:02;;;;;;;0.13;0.13;;;;;;;15.44;67.55;95939.91;5040253;28;20069;-74
2023/10/21 10:50:31;;;;;;;0.22;0.22;;;;;;;15.42;67.20;95950.91;5040022;28;20503;-74
2023/10/21 10:52:59;;;;;;;0.30;0.30;;;;;;;15.50;67.41;95946.91;5026712;28;20055;-74
2023/10/21 10:55:27;;;;;;;0.08;0.08;;;;;;;15.53;66.41;95946.38;5040470;28;20465;-73
2023/10/21 10:57:55;;;;;;;0.20;0.20;;;;;;;15.53;67.04;95951.75;5038077;28;20045;-74
2023/10/21 11:00:25;;;;;;;0.45;0.45;;;;;;;15.64;66.94;95958.78;5034158;28;20109;-75
2023/10/21 11:02:53;;;;;;;0.30;0.30;;;;;;;15.83;66.53;95955.59;5035822;28;20098;-73
2023/10/21 11:05:22;;;;;;;0.20;0.20;;;;;;;15.98;65.77;95956.41;5031964;28;20046;-74
2023/10/21 11:07:52;;;;;;;0.20;0.20;;;;;;;16.15;65.23;95939.97;5038701;28;20116;-74
2023/10/21 11:10:20;;;;;;;0.10;0.10;;;;;;;16.23;64.09;95941.31;5046533;28;20048;-73
2023/10/21 11:12:49;;;;;;;0.32;0.20;;;;;;;16.22;63.01;95943.19;5028788;28;20140;-73
2023/10/21 11:15:17;;;;;;;0.10;0.10;;;;;;;16.10;63.17;95953.41;5042447;28;20377;-73
2023/10/21 11:17:47;;;;;;;0.20;0.20;;;;;;;16.10;63.72;95961.50;5038957;28;20523;-73
2023/10/21 11:20:16;;;;;;;0.10;0.10;;;;;;;16.14;63.83;95966.09;5040526;28;20087;-73
2023/10/21 11:22:44;;;;;;;0.20;0.20;;;;;;;16.20;63.81;95972.25;5042271;28;20052;-73
2023/10/21 11:25:12;;;;;;;0.10;0.10;;;;;;;16.37;63.15;95972.81;5040904;28;20045;-73
2023/10/21 11:27:40;;;;;;;0.10;0.10;;;;;;;16.46;62.49;95964.97;5045950;28;20034;-75
2023/10/21 11:30:09;;;;;;;0.20;0.20;;;;;;;16.73;62.46;95970.88;5044078;28;20053;-73
2023/10/21 11:32:37;;;;;;;0.10;0.10;;;;;;;17.13;60.73;95961.06;5044696;28;20065;-74
2023/10/21 11:35:09;;;;;;;0.10;0.10;;;;;;;17.37;60.00;95972.78;5056218;28;20106;-74
2023/10/21 11:37:38;;;;;;;0.10;0.10;;;;;;;17.85;58.66;95976.59;5051172;28;20041;-75
2023/10/21 11:40:09;;;;;;;0.10;0.10;;;;;;;18.21;56.16;95985.22;5043426;28;20706;-74
2023/10/21 11:42:38;;;;;;;0.10;0.10;;;;;;;18.23;54.94;95988.44;5043536;28;20055;-74